Friday, July 20, 2018, 12:34 PM EDT
Back to Local

KIPT, Williamsport-lycoming County

Location: Montoursville, PA, United States Lat: 41.25
Local Time: 12:34 PM EDT (16:34 GMT) Lon: -76.917
Time Zone: US/Eastern Elev: 528 ft

Show me the last for .
Show Decoded

2018-07-20 11:54 METAR KIPT 201554Z 00000KT 10SM CLR 26/17 A3011 RMK AO2 SLP193 T02610167 =
2018-07-20 10:54 METAR KIPT 201454Z 13006KT 10SM CLR 25/16 A3012 RMK AO2 SLP197 T02500156 56003 =
2018-07-20 09:54 METAR KIPT 201354Z 16010KT 10SM CLR 23/15 A3012 RMK AO2 SLP197 T02330150 =
2018-07-20 08:54 METAR KIPT 201254Z 12003KT 10SM CLR 19/14 A3013 RMK AO2 SLP199 T01940144 =
2018-07-20 07:54 METAR KIPT 201154Z 00000KT 10SM CLR 17/13 A3013 RMK AO2 SLP200 T01720128 10172
                 20139 52008 =
2018-07-20 06:54 METAR KIPT 201054Z 34003KT 10SM CLR 15/12 A3012 RMK AO2 SLP197 T01500122 =
2018-07-20 05:54 METAR KIPT 200954Z AUTO 00000KT 10SM CLR 14/12 A3012 RMK AO2 SLP195 T01440122 =
2018-07-20 04:54 METAR KIPT 200854Z AUTO 07003KT 10SM CLR 15/12 A3011 RMK AO2 SLP192 T01500122
                 51003 =
2018-07-20 03:54 METAR KIPT 200754Z AUTO 01003KT 10SM CLR 16/13 A3011 RMK AO2 SLP191 T01560128 =
2018-07-20 02:54 METAR KIPT 200654Z AUTO 00000KT 10SM CLR 16/13 A3010 RMK AO2 SLP190 T01560133 =
2018-07-20 01:54 METAR KIPT 200554Z AUTO 35003KT 10SM CLR 16/13 A3010 RMK AO2 SLP189 T01610133
                 10256 20156 50004 =
2018-07-20 00:54 METAR KIPT 200454Z AUTO 00000KT 10SM CLR 17/13 A3010 RMK AO2 SLP190 T01720133
                 402830122 =
2018-07-19 23:54 METAR KIPT 200354Z AUTO 00000KT 10SM CLR 18/14 A3009 RMK AO2 SLP187 T01780139 =
2018-07-19 22:54 METAR KIPT 200254Z AUTO 00000KT 10SM CLR 18/15 A3009 RMK AO2 SLP186 T01830150
                 53013 =
2018-07-19 21:54 METAR KIPT 200154Z VRB03KT 10SM CLR 19/15 A3008 RMK AO2 SLP183 T01940150 =
2018-07-19 20:54 METAR KIPT 200054Z 00000KT 10SM CLR 24/14 A3005 RMK AO2 SLP175 T02390144 =
2018-07-19 19:54 METAR KIPT 192354Z 00000KT 10SM CLR 25/14 A3005 RMK AO2 SLP173 T02500139 10283
                 20250 56004 =
2018-07-19 18:54 METAR KIPT 192254Z 12005KT 10SM CLR 27/13 A3005 RMK AO2 SLP174 T02670133 =
2018-07-19 17:54 METAR KIPT 192154Z 21004KT 10SM CLR 28/11 A3005 RMK AO2 SLP173 T02780106 =
2018-07-19 16:54 METAR KIPT 192054Z VRB03KT 10SM CLR 28/10 A3006 RMK AO2 SLP177 T02830100 56012 =
2018-07-19 15:54 METAR KIPT 191954Z VRB03KT 10SM CLR 28/10 A3007 RMK AO2 SLP179 T02780100 =
2018-07-19 14:54 METAR KIPT 191854Z VRB05KT 10SM CLR 27/09 A3008 RMK AO2 SLP185 T02670094 =
2018-07-19 13:54 METAR KIPT 191754Z 23005KT 10SM CLR 26/09 A3010 RMK AO2 SLP188 T02610089 10261
                 20156 58011 =
2018-07-19 12:54 METAR KIPT 191654Z VRB03KT 10SM CLR 25/07 A3011 RMK AO2 SLP195 T02500067 =

Support USWX by starting your Amazon purchase here.